sensor_id;sensor_type;location;lat;lon;timestamp;P1;durP1;ratioP1;P2;durP2;ratioP2
68377;SDS011;55322;48.146;11.516;2022-12-13T00:01:08;13.17;;;4.67;;
68377;SDS011;55322;48.146;11.516;2022-12-13T00:03:35;11.97;;;5.07;;
68377;SDS011;55322;48.146;11.516;2022-12-13T00:06:03;12.85;;;5.00;;
68377;SDS011;55322;48.146;11.516;2022-12-13T00:08:29;12.00;;;5.07;;
68377;SDS011;55322;48.146;11.516;2022-12-13T00:10:58;11.73;;;4.83;;
68377;SDS011;55322;48.146;11.516;2022-12-13T00:13:25;11.57;;;4.72;;
68377;SDS011;55322;48.146;11.516;2022-12-13T00:15:57;14.10;;;5.38;;
68377;SDS011;55322;48.146;11.516;2022-12-13T00:18:24;12.47;;;4.90;;
68377;SDS011;55322;48.146;11.516;2022-12-13T00:20:49;13.10;;;4.63;;
68377;SDS011;55322;48.146;11.516;2022-12-13T00:23:15;12.15;;;4.65;;
68377;SDS011;55322;48.146;11.516;2022-12-13T00:25:40;12.83;;;5.53;;
68377;SDS011;55322;48.146;11.516;2022-12-13T00:28:05;11.97;;;5.37;;
68377;SDS011;55322;48.146;11.516;2022-12-13T00:30:31;12.23;;;5.13;;
68377;SDS011;55322;48.146;11.516;2022-12-13T00:32:57;11.23;;;4.68;;
68377;SDS011;55322;48.146;11.516;2022-12-13T00:35:22;12.30;;;5.17;;
68377;SDS011;55322;48.146;11.516;2022-12-13T00:37:47;10.90;;;5.30;;
68377;SDS011;55322;48.146;11.516;2022-12-13T00:40:13;13.30;;;5.60;;
68377;SDS011;55322;48.146;11.516;2022-12-13T00:42:38;13.17;;;5.57;;
68377;SDS011;55322;48.146;11.516;2022-12-13T00:45:03;12.93;;;5.63;;
68377;SDS011;55322;48.146;11.516;2022-12-13T00:47:29;12.40;;;5.67;;
68377;SDS011;55322;48.146;11.516;2022-12-13T00:49:54;11.50;;;5.20;;
68377;SDS011;55322;48.146;11.516;2022-12-13T00:52:19;11.80;;;5.07;;
68377;SDS011;55322;48.146;11.516;2022-12-13T00:54:45;14.47;;;6.37;;
68377;SDS011;55322;48.146;11.516;2022-12-13T00:57:10;13.47;;;5.57;;
68377;SDS011;55322;48.146;11.516;2022-12-13T00:59:36;13.47;;;5.97;;
68377;SDS011;55322;48.146;11.516;2022-12-13T01:02:01;11.37;;;5.67;;
68377;SDS011;55322;48.146;11.516;2022-12-13T01:04:26;21.80;;;6.50;;
68377;SDS011;55322;48.146;11.516;2022-12-13T01:06:52;12.67;;;6.27;;
68377;SDS011;55322;48.146;11.516;2022-12-13T01:09:19;14.50;;;6.90;;
68377;SDS011;55322;48.146;11.516;2022-12-13T01:11:46;16.42;;;6.43;;
68377;SDS011;55322;48.146;11.516;2022-12-13T01:14:13;14.30;;;7.20;;
68377;SDS011;55322;48.146;11.516;2022-12-13T01:16:38;12.70;;;6.30;;
68377;SDS011;55322;48.146;11.516;2022-12-13T01:19:04;13.70;;;6.43;;
68377;SDS011;55322;48.146;11.516;2022-12-13T01:21:29;13.70;;;6.40;;
68377;SDS011;55322;48.146;11.516;2022-12-13T01:23:58;18.73;;;6.43;;
68377;SDS011;55322;48.146;11.516;2022-12-13T01:26:25;14.10;;;6.20;;
68377;SDS011;55322;48.146;11.516;2022-12-13T01:28:51;13.17;;;6.13;;
68377;SDS011;55322;48.146;11.516;2022-12-13T01:31:18;12.63;;;6.00;;
68377;SDS011;55322;48.146;11.516;2022-12-13T01:33:44;14.77;;;6.63;;
68377;SDS011;55322;48.146;11.516;2022-12-13T01:36:12;12.93;;;5.95;;
68377;SDS011;55322;48.146;11.516;2022-12-13T01:38:39;12.67;;;5.53;;
68377;SDS011;55322;48.146;11.516;2022-12-13T01:41:05;15.35;;;6.50;;
68377;SDS011;55322;48.146;11.516;2022-12-13T01:46:05;12.88;;;5.57;;
68377;SDS011;55322;48.146;11.516;2022-12-13T01:48:32;13.97;;;6.70;;
68377;SDS011;55322;48.146;11.516;2022-12-13T01:51:03;16.48;;;6.22;;
68377;SDS011;55322;48.146;11.516;2022-12-13T01:53:31;16.35;;;6.70;;
68377;SDS011;55322;48.146;11.516;2022-12-13T01:56:06;13.10;;;6.07;;
68377;SDS011;55322;48.146;11.516;2022-12-13T01:58:35;12.10;;;5.63;;
68377;SDS011;55322;48.146;11.516;2022-12-13T02:01:02;13.50;;;5.78;;
68377;SDS011;55322;48.146;11.516;2022-12-13T02:03:28;15.05;;;6.25;;
68377;SDS011;55322;48.146;11.516;2022-12-13T02:06:00;15.90;;;6.67;;
68377;SDS011;55322;48.146;11.516;2022-12-13T02:08:30;15.45;;;6.68;;
68377;SDS011;55322;48.146;11.516;2022-12-13T02:10:57;11.68;;;5.45;;
68377;SDS011;55322;48.146;11.516;2022-12-13T02:13:23;15.70;;;6.40;;
68377;SDS011;55322;48.146;11.516;2022-12-13T02:24:47;17.75;;;5.53;;
68377;SDS011;55322;48.146;11.516;2022-12-13T02:27:28;14.68;;;6.15;;
68377;SDS011;55322;48.146;11.516;2022-12-13T02:33:19;14.05;;;5.90;;
68377;SDS011;55322;48.146;11.516;2022-12-13T02:44:14;15.80;;;6.15;;
68377;SDS011;55322;48.146;11.516;2022-12-13T02:47:08;17.02;;;7.43;;
68377;SDS011;55322;48.146;11.516;2022-12-13T02:49:40;16.35;;;6.90;;
68377;SDS011;55322;48.146;11.516;2022-12-13T02:52:10;15.23;;;7.13;;
68377;SDS011;55322;48.146;11.516;2022-12-13T02:54:38;13.45;;;6.50;;
68377;SDS011;55322;48.146;11.516;2022-12-13T02:57:25;13.23;;;5.43;;
68377;SDS011;55322;48.146;11.516;2022-12-13T02:59:59;12.90;;;6.43;;
68377;SDS011;55322;48.146;11.516;2022-12-13T03:02:54;15.68;;;7.68;;
68377;SDS011;55322;48.146;11.516;2022-12-13T03:05:32;14.13;;;7.57;;
68377;SDS011;55322;48.146;11.516;2022-12-13T03:08:19;17.48;;;7.63;;
68377;SDS011;55322;48.146;11.516;2022-12-13T03:10:51;16.52;;;7.18;;
68377;SDS011;55322;48.146;11.516;2022-12-13T03:14:17;16.23;;;7.18;;
68377;SDS011;55322;48.146;11.516;2022-12-13T03:19:05;15.80;;;6.47;;
68377;SDS011;55322;48.146;11.516;2022-12-13T03:21:39;13.85;;;6.50;;
68377;SDS011;55322;48.146;11.516;2022-12-13T03:24:07;14.32;;;6.75;;
68377;SDS011;55322;48.146;11.516;2022-12-13T03:26:32;15.35;;;6.63;;
68377;SDS011;55322;48.146;11.516;2022-12-13T03:28:58;15.63;;;6.87;;
68377;SDS011;55322;48.146;11.516;2022-12-13T03:31:24;19.65;;;6.70;;
68377;SDS011;55322;48.146;11.516;2022-12-13T03:33:49;14.07;;;6.50;;
68377;SDS011;55322;48.146;11.516;2022-12-13T03:36:15;15.67;;;6.63;;
68377;SDS011;55322;48.146;11.516;2022-12-13T03:38:42;13.23;;;6.07;;
68377;SDS011;55322;48.146;11.516;2022-12-13T03:41:10;15.07;;;6.20;;
68377;SDS011;55322;48.146;11.516;2022-12-13T03:43:38;14.32;;;6.82;;
68377;SDS011;55322;48.146;11.516;2022-12-13T03:46:04;11.80;;;5.95;;
68377;SDS011;55322;48.146;11.516;2022-12-13T03:48:30;16.52;;;7.13;;
68377;SDS011;55322;48.146;11.516;2022-12-13T03:50:55;16.00;;;6.30;;
68377;SDS011;55322;48.146;11.516;2022-12-13T03:53:21;14.10;;;6.37;;
68377;SDS011;55322;48.146;11.516;2022-12-13T03:55:48;15.20;;;6.30;;
68377;SDS011;55322;48.146;11.516;2022-12-13T03:58:13;13.53;;;5.70;;
68377;SDS011;55322;48.146;11.516;2022-12-13T04:00:39;13.83;;;5.53;;
68377;SDS011;55322;48.146;11.516;2022-12-13T04:03:04;13.23;;;5.83;;
68377;SDS011;55322;48.146;11.516;2022-12-13T04:05:29;13.90;;;6.03;;
68377;SDS011;55322;48.146;11.516;2022-12-13T04:07:55;9.80;;;4.47;;
68377;SDS011;55322;48.146;11.516;2022-12-13T04:10:21;12.80;;;6.17;;
68377;SDS011;55322;48.146;11.516;2022-12-13T04:12:46;13.05;;;5.75;;
68377;SDS011;55322;48.146;11.516;2022-12-13T04:15:30;12.07;;;5.57;;
68377;SDS011;55322;48.146;11.516;2022-12-13T04:17:55;10.03;;;4.20;;
68377;SDS011;55322;48.146;11.516;2022-12-13T04:20:21;11.18;;;5.03;;
68377;SDS011;55322;48.146;11.516;2022-12-13T04:22:46;15.02;;;6.22;;
68377;SDS011;55322;48.146;11.516;2022-12-13T04:25:11;13.33;;;4.73;;
68377;SDS011;55322;48.146;11.516;2022-12-13T04:27:37;11.90;;;5.17;;
68377;SDS011;55322;48.146;11.516;2022-12-13T04:30:03;12.77;;;4.30;;
68377;SDS011;55322;48.146;11.516;2022-12-13T04:32:29;11.25;;;4.88;;
68377;SDS011;55322;48.146;11.516;2022-12-13T04:34:55;15.80;;;6.00;;
68377;SDS011;55322;48.146;11.516;2022-12-13T04:37:20;9.93;;;4.23;;
68377;SDS011;55322;48.146;11.516;2022-12-13T04:39:45;12.53;;;5.00;;
68377;SDS011;55322;48.146;11.516;2022-12-13T04:42:10;13.53;;;5.67;;
68377;SDS011;55322;48.146;11.516;2022-12-13T04:44:36;11.13;;;4.88;;
68377;SDS011;55322;48.146;11.516;2022-12-13T04:47:02;13.53;;;5.73;;
68377;SDS011;55322;48.146;11.516;2022-12-13T04:49:28;12.88;;;5.70;;
68377;SDS011;55322;48.146;11.516;2022-12-13T04:51:54;9.93;;;4.20;;
68377;SDS011;55322;48.146;11.516;2022-12-13T04:54:19;12.77;;;5.20;;
68377;SDS011;55322;48.146;11.516;2022-12-13T04:56:44;12.90;;;5.82;;
68377;SDS011;55322;48.146;11.516;2022-12-13T04:59:10;14.50;;;5.77;;
68377;SDS011;55322;48.146;11.516;2022-12-13T05:01:35;11.63;;;5.10;;
68377;SDS011;55322;48.146;11.516;2022-12-13T05:04:01;13.80;;;4.93;;
68377;SDS011;55322;48.146;11.516;2022-12-13T05:06:27;12.98;;;5.25;;
68377;SDS011;55322;48.146;11.516;2022-12-13T05:08:52;12.90;;;5.70;;
68377;SDS011;55322;48.146;11.516;2022-12-13T05:11:18;12.57;;;5.37;;
68377;SDS011;55322;48.146;11.516;2022-12-13T05:13:43;10.80;;;4.70;;
68377;SDS011;55322;48.146;11.516;2022-12-13T05:16:09;13.30;;;5.43;;
68377;SDS011;55322;48.146;11.516;2022-12-13T05:18:34;12.20;;;5.18;;
68377;SDS011;55322;48.146;11.516;2022-12-13T05:21:01;14.23;;;5.17;;
68377;SDS011;55322;48.146;11.516;2022-12-13T05:23:31;14.02;;;5.20;;
68377;SDS011;55322;48.146;11.516;2022-12-13T05:25:56;11.73;;;5.03;;
68377;SDS011;55322;48.146;11.516;2022-12-13T05:28:22;12.63;;;5.53;;
68377;SDS011;55322;48.146;11.516;2022-12-13T05:30:51;11.63;;;4.82;;
68377;SDS011;55322;48.146;11.516;2022-12-13T05:33:16;15.95;;;5.25;;
68377;SDS011;55322;48.146;11.516;2022-12-13T05:35:42;12.57;;;5.23;;
68377;SDS011;55322;48.146;11.516;2022-12-13T05:38:07;11.50;;;3.80;;
68377;SDS011;55322;48.146;11.516;2022-12-13T05:40:33;15.80;;;5.50;;
68377;SDS011;55322;48.146;11.516;2022-12-13T05:42:59;10.85;;;4.15;;
68377;SDS011;55322;48.146;11.516;2022-12-13T05:45:25;14.77;;;4.70;;
68377;SDS011;55322;48.146;11.516;2022-12-13T05:47:50;10.33;;;4.30;;
68377;SDS011;55322;48.146;11.516;2022-12-13T05:50:16;7.77;;;3.20;;
68377;SDS011;55322;48.146;11.516;2022-12-13T05:52:42;11.02;;;4.57;;
68377;SDS011;55322;48.146;11.516;2022-12-13T05:55:07;10.52;;;4.93;;
68377;SDS011;55322;48.146;11.516;2022-12-13T05:57:33;12.93;;;5.53;;
68377;SDS011;55322;48.146;11.516;2022-12-13T05:59:59;12.13;;;4.47;;
68377;SDS011;55322;48.146;11.516;2022-12-13T06:02:24;9.73;;;4.10;;
68377;SDS011;55322;48.146;11.516;2022-12-13T06:04:49;10.83;;;4.70;;
68377;SDS011;55322;48.146;11.516;2022-12-13T06:07:14;10.40;;;4.17;;
68377;SDS011;55322;48.146;11.516;2022-12-13T06:09:40;11.97;;;3.50;;
68377;SDS011;55322;48.146;11.516;2022-12-13T06:12:06;13.52;;;4.82;;
68377;SDS011;55322;48.146;11.516;2022-12-13T06:14:31;18.70;;;5.03;;
68377;SDS011;55322;48.146;11.516;2022-12-13T06:16:57;9.80;;;3.97;;
68377;SDS011;55322;48.146;11.516;2022-12-13T06:19:22;9.03;;;3.23;;
68377;SDS011;55322;48.146;11.516;2022-12-13T06:21:51;10.05;;;3.90;;
68377;SDS011;55322;48.146;11.516;2022-12-13T06:24:19;11.65;;;4.28;;
68377;SDS011;55322;48.146;11.516;2022-12-13T06:26:45;12.77;;;4.30;;
68377;SDS011;55322;48.146;11.516;2022-12-13T06:29:12;11.20;;;4.35;;
68377;SDS011;55322;48.146;11.516;2022-12-13T06:31:42;13.15;;;5.00;;
68377;SDS011;55322;48.146;11.516;2022-12-13T06:34:07;12.77;;;5.27;;
68377;SDS011;55322;48.146;11.516;2022-12-13T06:36:33;12.20;;;5.17;;
68377;SDS011;55322;48.146;11.516;2022-12-13T06:39:02;11.73;;;4.20;;
68377;SDS011;55322;48.146;11.516;2022-12-13T06:41:28;12.63;;;5.30;;
68377;SDS011;55322;48.146;11.516;2022-12-13T06:43:54;10.88;;;4.75;;
68377;SDS011;55322;48.146;11.516;2022-12-13T06:46:19;13.63;;;4.80;;
68377;SDS011;55322;48.146;11.516;2022-12-13T06:48:44;13.43;;;4.87;;
68377;SDS011;55322;48.146;11.516;2022-12-13T06:51:10;12.80;;;4.80;;
68377;SDS011;55322;48.146;11.516;2022-12-13T06:53:36;13.83;;;5.07;;
68377;SDS011;55322;48.146;11.516;2022-12-13T06:56:03;11.95;;;4.38;;
68377;SDS011;55322;48.146;11.516;2022-12-13T06:58:29;11.05;;;3.92;;
68377;SDS011;55322;48.146;11.516;2022-12-13T07:01:02;11.37;;;4.80;;
68377;SDS011;55322;48.146;11.516;2022-12-13T07:03:30;15.63;;;4.88;;
68377;SDS011;55322;48.146;11.516;2022-12-13T07:05:57;11.18;;;4.88;;
68377;SDS011;55322;48.146;11.516;2022-12-13T07:08:23;9.57;;;4.40;;
68377;SDS011;55322;48.146;11.516;2022-12-13T07:10:50;15.27;;;4.85;;
68377;SDS011;55322;48.146;11.516;2022-12-13T07:13:17;8.98;;;3.83;;
68377;SDS011;55322;48.146;11.516;2022-12-13T07:15:44;11.32;;;5.05;;
68377;SDS011;55322;48.146;11.516;2022-12-13T07:18:10;14.07;;;5.27;;
68377;SDS011;55322;48.146;11.516;2022-12-13T07:20:37;12.77;;;5.33;;
68377;SDS011;55322;48.146;11.516;2022-12-13T07:23:05;15.45;;;5.50;;
68377;SDS011;55322;48.146;11.516;2022-12-13T07:25:31;8.77;;;3.30;;
68377;SDS011;55322;48.146;11.516;2022-12-13T07:28:00;15.20;;;5.60;;
68377;SDS011;55322;48.146;11.516;2022-12-13T07:30:27;12.50;;;5.17;;
68377;SDS011;55322;48.146;11.516;2022-12-13T07:32:53;14.95;;;5.60;;
68377;SDS011;55322;48.146;11.516;2022-12-13T07:35:19;16.00;;;6.23;;
68377;SDS011;55322;48.146;11.516;2022-12-13T07:37:44;13.90;;;5.93;;
68377;SDS011;55322;48.146;11.516;2022-12-13T07:40:09;14.00;;;5.65;;
68377;SDS011;55322;48.146;11.516;2022-12-13T07:42:35;15.85;;;5.88;;
68377;SDS011;55322;48.146;11.516;2022-12-13T07:45:01;14.27;;;6.37;;
68377;SDS011;55322;48.146;11.516;2022-12-13T07:47:29;14.30;;;6.45;;
68377;SDS011;55322;48.146;11.516;2022-12-13T07:49:56;15.43;;;5.97;;
68377;SDS011;55322;48.146;11.516;2022-12-13T07:52:22;14.57;;;6.03;;
68377;SDS011;55322;48.146;11.516;2022-12-13T07:54:47;13.98;;;5.95;;
68377;SDS011;55322;48.146;11.516;2022-12-13T07:57:13;14.17;;;4.47;;
68377;SDS011;55322;48.146;11.516;2022-12-13T07:59:38;11.77;;;5.20;;
68377;SDS011;55322;48.146;11.516;2022-12-13T08:02:05;16.40;;;6.73;;
68377;SDS011;55322;48.146;11.516;2022-12-13T08:04:30;12.30;;;5.32;;
68377;SDS011;55322;48.146;11.516;2022-12-13T08:06:56;14.83;;;5.73;;
68377;SDS011;55322;48.146;11.516;2022-12-13T08:09:21;11.27;;;4.63;;
68377;SDS011;55322;48.146;11.516;2022-12-13T08:11:47;13.30;;;5.63;;
68377;SDS011;55322;48.146;11.516;2022-12-13T08:14:12;11.90;;;5.57;;
68377;SDS011;55322;48.146;11.516;2022-12-13T08:16:38;13.50;;;5.20;;
68377;SDS011;55322;48.146;11.516;2022-12-13T08:19:03;11.95;;;4.95;;
68377;SDS011;55322;48.146;11.516;2022-12-13T08:21:32;11.93;;;5.70;;
68377;SDS011;55322;48.146;11.516;2022-12-13T08:24:01;11.90;;;4.67;;
68377;SDS011;55322;48.146;11.516;2022-12-13T08:26:27;17.58;;;6.63;;
68377;SDS011;55322;48.146;11.516;2022-12-13T08:28:52;19.07;;;7.30;;
68377;SDS011;55322;48.146;11.516;2022-12-13T08:31:18;13.73;;;5.70;;
68377;SDS011;55322;48.146;11.516;2022-12-13T08:33:43;17.23;;;6.17;;
68377;SDS011;55322;48.146;11.516;2022-12-13T08:36:11;15.10;;;5.60;;
68377;SDS011;55322;48.146;11.516;2022-12-13T08:38:40;14.30;;;5.68;;
68377;SDS011;55322;48.146;11.516;2022-12-13T08:41:05;13.60;;;4.83;;
68377;SDS011;55322;48.146;11.516;2022-12-13T08:43:31;13.82;;;6.28;;
68377;SDS011;55322;48.146;11.516;2022-12-13T08:45:56;17.77;;;6.47;;
68377;SDS011;55322;48.146;11.516;2022-12-13T08:48:21;15.53;;;6.30;;
68377;SDS011;55322;48.146;11.516;2022-12-13T08:50:47;14.37;;;6.23;;
68377;SDS011;55322;48.146;11.516;2022-12-13T08:53:12;16.07;;;6.50;;
68377;SDS011;55322;48.146;11.516;2022-12-13T08:55:38;13.00;;;6.32;;
68377;SDS011;55322;48.146;11.516;2022-12-13T08:58:04;12.20;;;5.78;;
68377;SDS011;55322;48.146;11.516;2022-12-13T09:00:32;13.67;;;6.50;;
68377;SDS011;55322;48.146;11.516;2022-12-13T09:02:58;11.55;;;5.03;;
68377;SDS011;55322;48.146;11.516;2022-12-13T09:05:23;15.77;;;5.80;;
68377;SDS011;55322;48.146;11.516;2022-12-13T09:07:49;12.15;;;5.10;;
68377;SDS011;55322;48.146;11.516;2022-12-13T09:10:18;14.07;;;6.05;;
68377;SDS011;55322;48.146;11.516;2022-12-13T09:12:44;12.93;;;5.70;;
68377;SDS011;55322;48.146;11.516;2022-12-13T09:15:10;15.03;;;6.20;;
68377;SDS011;55322;48.146;11.516;2022-12-13T09:17:35;13.40;;;6.07;;
68377;SDS011;55322;48.146;11.516;2022-12-13T09:20:00;17.90;;;5.30;;
68377;SDS011;55322;48.146;11.516;2022-12-13T09:22:26;14.52;;;5.07;;
68377;SDS011;55322;48.146;11.516;2022-12-13T09:24:51;11.07;;;5.00;;
68377;SDS011;55322;48.146;11.516;2022-12-13T09:27:17;13.57;;;5.73;;
68377;SDS011;55322;48.146;11.516;2022-12-13T09:29:43;12.85;;;5.00;;
68377;SDS011;55322;48.146;11.516;2022-12-13T09:32:08;14.13;;;4.77;;
68377;SDS011;55322;48.146;11.516;2022-12-13T09:34:33;16.30;;;6.27;;
68377;SDS011;55322;48.146;11.516;2022-12-13T09:36:59;14.23;;;5.40;;
68377;SDS011;55322;48.146;11.516;2022-12-13T09:39:24;15.23;;;5.05;;
68377;SDS011;55322;48.146;11.516;2022-12-13T09:41:51;11.87;;;5.00;;
68377;SDS011;55322;48.146;11.516;2022-12-13T09:44:18;13.90;;;4.60;;
68377;SDS011;55322;48.146;11.516;2022-12-13T09:46:45;11.25;;;5.15;;
68377;SDS011;55322;48.146;11.516;2022-12-13T09:49:13;14.43;;;5.53;;
68377;SDS011;55322;48.146;11.516;2022-12-13T09:51:42;13.90;;;5.28;;
68377;SDS011;55322;48.146;11.516;2022-12-13T09:54:15;12.95;;;5.78;;
68377;SDS011;55322;48.146;11.516;2022-12-13T09:56:43;10.53;;;4.57;;
68377;SDS011;55322;48.146;11.516;2022-12-13T09:59:14;12.75;;;4.93;;
68377;SDS011;55322;48.146;11.516;2022-12-13T10:01:39;11.75;;;4.63;;
68377;SDS011;55322;48.146;11.516;2022-12-13T10:04:07;13.43;;;4.70;;
68377;SDS011;55322;48.146;11.516;2022-12-13T10:06:37;16.35;;;6.63;;
68377;SDS011;55322;48.146;11.516;2022-12-13T10:09:02;14.13;;;6.13;;
68377;SDS011;55322;48.146;11.516;2022-12-13T10:11:32;14.02;;;5.88;;
68377;SDS011;55322;48.146;11.516;2022-12-13T10:14:11;16.70;;;6.27;;
68377;SDS011;55322;48.146;11.516;2022-12-13T10:17:01;12.65;;;4.78;;
68377;SDS011;55322;48.146;11.516;2022-12-13T10:19:33;16.02;;;6.38;;
68377;SDS011;55322;48.146;11.516;2022-12-13T10:22:10;13.13;;;5.60;;
68377;SDS011;55322;48.146;11.516;2022-12-13T10:27:13;11.98;;;4.72;;
68377;SDS011;55322;48.146;11.516;2022-12-13T10:32:22;15.10;;;5.93;;
68377;SDS011;55322;48.146;11.516;2022-12-13T10:34:48;16.05;;;6.57;;
68377;SDS011;55322;48.146;11.516;2022-12-13T10:39:48;16.08;;;7.55;;
68377;SDS011;55322;48.146;11.516;2022-12-13T10:42:15;20.07;;;6.87;;
68377;SDS011;55322;48.146;11.516;2022-12-13T10:44:43;13.75;;;6.30;;
68377;SDS011;55322;48.146;11.516;2022-12-13T10:49:38;14.97;;;6.50;;
68377;SDS011;55322;48.146;11.516;2022-12-13T10:52:27;13.75;;;6.30;;
68377;SDS011;55322;48.146;11.516;2022-12-13T10:54:55;14.30;;;6.53;;
68377;SDS011;55322;48.146;11.516;2022-12-13T10:57:23;16.33;;;6.45;;
68377;SDS011;55322;48.146;11.516;2022-12-13T10:59:49;13.63;;;5.93;;
68377;SDS011;55322;48.146;11.516;2022-12-13T11:04:44;14.20;;;5.50;;
68377;SDS011;55322;48.146;11.516;2022-12-13T11:09:53;10.75;;;4.80;;
68377;SDS011;55322;48.146;11.516;2022-12-13T11:12:20;14.45;;;5.95;;
68377;SDS011;55322;48.146;11.516;2022-12-13T11:14:51;21.92;;;6.20;;
68377;SDS011;55322;48.146;11.516;2022-12-13T11:17:19;16.17;;;5.82;;
68377;SDS011;55322;48.146;11.516;2022-12-13T11:19:53;14.57;;;5.20;;
68377;SDS011;55322;48.146;11.516;2022-12-13T11:22:22;14.30;;;6.30;;
68377;SDS011;55322;48.146;11.516;2022-12-13T11:24:51;15.77;;;6.53;;
68377;SDS011;55322;48.146;11.516;2022-12-13T11:41:02;15.95;;;6.65;;
68377;SDS011;55322;48.146;11.516;2022-12-13T11:46:45;18.63;;;7.93;;
68377;SDS011;55322;48.146;11.516;2022-12-13T11:49:11;14.68;;;6.30;;
68377;SDS011;55322;48.146;11.516;2022-12-13T11:51:47;13.98;;;6.53;;
68377;SDS011;55322;48.146;11.516;2022-12-13T11:57:58;18.98;;;6.72;;
68377;SDS011;55322;48.146;11.516;2022-12-13T12:03:26;16.70;;;6.35;;
68377;SDS011;55322;48.146;11.516;2022-12-13T12:06:03;13.70;;;4.88;;
68377;SDS011;55322;48.146;11.516;2022-12-13T12:08:37;14.43;;;6.13;;
68377;SDS011;55322;48.146;11.516;2022-12-13T12:11:17;13.07;;;6.40;;
68377;SDS011;55322;48.146;11.516;2022-12-13T12:13:48;19.93;;;6.53;;
68377;SDS011;55322;48.146;11.516;2022-12-13T12:16:22;16.85;;;6.55;;
68377;SDS011;55322;48.146;11.516;2022-12-13T12:18:53;14.50;;;6.03;;
68377;SDS011;55322;48.146;11.516;2022-12-13T12:21:44;12.93;;;5.37;;
68377;SDS011;55322;48.146;11.516;2022-12-13T12:38:11;18.20;;;6.07;;
68377;SDS011;55322;48.146;11.516;2022-12-13T12:41:00;16.95;;;5.72;;
68377;SDS011;55322;48.146;11.516;2022-12-13T12:43:40;16.35;;;6.43;;
68377;SDS011;55322;48.146;11.516;2022-12-13T12:46:14;19.88;;;7.55;;
68377;SDS011;55322;48.146;11.516;2022-12-13T12:48:47;17.92;;;6.82;;
68377;SDS011;55322;48.146;11.516;2022-12-13T12:57:08;21.85;;;8.45;;
68377;SDS011;55322;48.146;11.516;2022-12-13T13:03:13;21.85;;;6.45;;
68377;SDS011;55322;48.146;11.516;2022-12-13T13:08:12;16.58;;;6.65;;
68377;SDS011;55322;48.146;11.516;2022-12-13T13:10:43;17.35;;;7.05;;
68377;SDS011;55322;48.146;11.516;2022-12-13T13:13:31;19.23;;;7.35;;
68377;SDS011;55322;48.146;11.516;2022-12-13T13:16:43;21.15;;;7.53;;
68377;SDS011;55322;48.146;11.516;2022-12-13T13:21:42;17.52;;;7.70;;
68377;SDS011;55322;48.146;11.516;2022-12-13T13:24:26;25.42;;;9.13;;
68377;SDS011;55322;48.146;11.516;2022-12-13T13:26:57;14.93;;;6.07;;
68377;SDS011;55322;48.146;11.516;2022-12-13T13:34:28;15.18;;;5.95;;
68377;SDS011;55322;48.146;11.516;2022-12-13T13:36:59;16.17;;;6.57;;
68377;SDS011;55322;48.146;11.516;2022-12-13T13:42:07;19.45;;;8.20;;
68377;SDS011;55322;48.146;11.516;2022-12-13T13:55:28;18.88;;;7.85;;
68377;SDS011;55322;48.146;11.516;2022-12-13T13:58:41;15.00;;;6.93;;
68377;SDS011;55322;48.146;11.516;2022-12-13T14:10:02;20.15;;;7.55;;
68377;SDS011;55322;48.146;11.516;2022-12-13T14:24:26;23.67;;;7.07;;
68377;SDS011;55322;48.146;11.516;2022-12-13T14:27:19;14.83;;;6.50;;
68377;SDS011;55322;48.146;11.516;2022-12-13T14:29:52;17.75;;;7.25;;
68377;SDS011;55322;48.146;11.516;2022-12-13T14:34:48;26.97;;;8.00;;
68377;SDS011;55322;48.146;11.516;2022-12-13T14:37:19;14.77;;;5.60;;
68377;SDS011;55322;48.146;11.516;2022-12-13T14:39:48;15.57;;;7.20;;
68377;SDS011;55322;48.146;11.516;2022-12-13T14:42:29;16.93;;;7.60;;
68377;SDS011;55322;48.146;11.516;2022-12-13T14:45:20;16.77;;;6.80;;
68377;SDS011;55322;48.146;11.516;2022-12-13T14:47:52;15.48;;;7.03;;
68377;SDS011;55322;48.146;11.516;2022-12-13T14:50:18;20.85;;;7.65;;
68377;SDS011;55322;48.146;11.516;2022-12-13T14:52:44;21.25;;;7.63;;
68377;SDS011;55322;48.146;11.516;2022-12-13T14:55:29;22.33;;;9.23;;
68377;SDS011;55322;48.146;11.516;2022-12-13T14:58:14;18.33;;;7.90;;
68377;SDS011;55322;48.146;11.516;2022-12-13T15:00:41;18.52;;;7.07;;
68377;SDS011;55322;48.146;11.516;2022-12-13T15:03:10;18.67;;;7.40;;
68377;SDS011;55322;48.146;11.516;2022-12-13T15:05:45;23.25;;;9.32;;
68377;SDS011;55322;48.146;11.516;2022-12-13T15:08:15;20.83;;;7.70;;
68377;SDS011;55322;48.146;11.516;2022-12-13T15:10:52;23.53;;;8.67;;
68377;SDS011;55322;48.146;11.516;2022-12-13T15:13:32;18.25;;;7.57;;
68377;SDS011;55322;48.146;11.516;2022-12-13T15:16:04;20.48;;;7.93;;
68377;SDS011;55322;48.146;11.516;2022-12-13T15:18:34;23.33;;;7.25;;
68377;SDS011;55322;48.146;11.516;2022-12-13T15:21:00;23.95;;;10.02;;
68377;SDS011;55322;48.146;11.516;2022-12-13T15:23:35;20.30;;;9.17;;
68377;SDS011;55322;48.146;11.516;2022-12-13T15:26:11;22.38;;;10.43;;
68377;SDS011;55322;48.146;11.516;2022-12-13T15:28:39;18.45;;;7.97;;
68377;SDS011;55322;48.146;11.516;2022-12-13T15:31:08;17.50;;;8.50;;
68377;SDS011;55322;48.146;11.516;2022-12-13T15:33:34;22.67;;;8.83;;
68377;SDS011;55322;48.146;11.516;2022-12-13T15:36:19;23.05;;;9.88;;
68377;SDS011;55322;48.146;11.516;2022-12-13T15:38:47;18.67;;;6.80;;
68377;SDS011;55322;48.146;11.516;2022-12-13T15:41:27;20.90;;;8.73;;
68377;SDS011;55322;48.146;11.516;2022-12-13T15:43:56;23.80;;;9.27;;
68377;SDS011;55322;48.146;11.516;2022-12-13T15:46:28;21.15;;;8.05;;
68377;SDS011;55322;48.146;11.516;2022-12-13T15:48:56;21.75;;;8.38;;
68377;SDS011;55322;48.146;11.516;2022-12-13T15:51:25;23.17;;;7.93;;
68377;SDS011;55322;48.146;11.516;2022-12-13T15:56:38;23.02;;;9.23;;
68377;SDS011;55322;48.146;11.516;2022-12-13T15:59:27;19.77;;;7.88;;
68377;SDS011;55322;48.146;11.516;2022-12-13T16:01:54;20.70;;;8.23;;
68377;SDS011;55322;48.146;11.516;2022-12-13T16:04:24;20.23;;;8.07;;
68377;SDS011;55322;48.146;11.516;2022-12-13T16:06:52;17.73;;;7.70;;
68377;SDS011;55322;48.146;11.516;2022-12-13T16:09:19;17.80;;;8.02;;
68377;SDS011;55322;48.146;11.516;2022-12-13T16:11:47;15.13;;;6.47;;
68377;SDS011;55322;48.146;11.516;2022-12-13T16:19:42;22.77;;;7.83;;
68377;SDS011;55322;48.146;11.516;2022-12-13T16:22:07;19.02;;;8.63;;
68377;SDS011;55322;48.146;11.516;2022-12-13T16:24:32;17.30;;;7.27;;
68377;SDS011;55322;48.146;11.516;2022-12-13T16:26:58;16.37;;;6.70;;
68377;SDS011;55322;48.146;11.516;2022-12-13T16:29:23;18.97;;;8.50;;
68377;SDS011;55322;48.146;11.516;2022-12-13T16:31:48;17.40;;;8.17;;
68377;SDS011;55322;48.146;11.516;2022-12-13T16:34:14;22.70;;;8.90;;
68377;SDS011;55322;48.146;11.516;2022-12-13T16:36:43;17.98;;;8.63;;
68377;SDS011;55322;48.146;11.516;2022-12-13T16:39:10;24.48;;;9.43;;
68377;SDS011;55322;48.146;11.516;2022-12-13T16:41:36;19.33;;;8.10;;
68377;SDS011;55322;48.146;11.516;2022-12-13T16:44:05;16.83;;;7.15;;
68377;SDS011;55322;48.146;11.516;2022-12-13T16:46:32;18.70;;;8.73;;
68377;SDS011;55322;48.146;11.516;2022-12-13T16:48:58;14.70;;;6.80;;
68377;SDS011;55322;48.146;11.516;2022-12-13T16:51:25;19.42;;;9.93;;
68377;SDS011;55322;48.146;11.516;2022-12-13T16:53:51;19.17;;;9.13;;